createdAt,value
2022-11-26T01:38:43.236Z,15.23
2022-11-26T01:46:48.949Z,14.95
2022-11-26T01:54:57.423Z,18.98
2022-11-26T02:03:03.468Z,18.70
2022-11-26T02:11:23.227Z,17.45
2022-11-26T02:19:58.074Z,17.23
2022-11-26T02:28:27.891Z,17.83
2022-11-26T02:36:41.728Z,15.25
2022-11-26T02:44:49.565Z,16.20
2022-11-26T02:53:00.780Z,17.65
2022-11-26T03:01:10.246Z,21.95
2022-11-26T03:09:20.281Z,20.70
2022-11-26T03:17:25.664Z,17.42
2022-11-26T03:25:34.142Z,18.17
2022-11-26T03:33:39.509Z,15.93
2022-11-26T03:41:47.456Z,18.23
2022-11-26T03:49:52.874Z,18.80
2022-11-26T03:58:00.789Z,19.95
2022-11-26T04:06:06.113Z,19.45
2022-11-26T04:14:14.000Z,19.73
2022-11-26T04:22:19.342Z,19.60
2022-11-26T04:30:29.828Z,20.70
2022-11-26T04:38:35.279Z,20.67
2022-11-26T04:46:43.178Z,20.40
2022-11-26T04:54:48.507Z,18.65
2022-11-26T05:02:56.540Z,17.98
2022-11-26T05:11:03.441Z,19.52
2022-11-26T05:19:11.509Z,19.60
2022-11-26T05:27:18.910Z,19.17
2022-11-26T05:35:26.934Z,17.45
2022-11-26T05:43:32.527Z,17.40
2022-11-26T05:51:40.595Z,18.60
2022-11-26T05:59:47.117Z,16.73
2022-11-26T06:07:55.205Z,17.73
2022-11-26T06:16:00.598Z,17.88
2022-11-26T06:24:09.405Z,16.95
2022-11-26T06:32:14.734Z,17.70
2022-11-26T06:40:24.298Z,19.13
2022-11-26T06:48:29.656Z,20.25
2022-11-26T06:56:38.101Z,18.95
2022-11-26T07:04:43.554Z,21.42
2022-11-26T07:12:51.454Z,19.73
2022-11-26T07:20:57.026Z,20.70
2022-11-26T07:29:04.943Z,22.10
2022-11-26T08:12:00.952Z,18.75
2022-11-26T08:20:06.707Z,19.40
2022-11-26T08:28:15.119Z,19.40
2022-11-26T08:36:23.390Z,17.70
2022-11-26T08:44:31.976Z,17.67
2022-11-26T08:52:37.566Z,20.08
2022-11-26T09:00:45.551Z,19.40
2022-11-26T09:09:03.454Z,21.35
2022-11-26T09:17:11.818Z,18.17
2022-11-26T09:25:17.208Z,17.00
2022-11-26T09:33:25.129Z,17.90
2022-11-26T09:41:43.862Z,18.20
2022-11-26T09:50:01.959Z,17.50
2022-11-26T09:58:14.953Z,17.25
2022-11-26T10:06:33.269Z,18.30
2022-11-26T10:14:53.780Z,16.75
2022-11-26T10:23:07.066Z,19.30
2022-11-26T10:31:19.634Z,20.00
2022-11-26T10:39:27.643Z,19.50
2022-11-26T10:47:34.760Z,19.45
2022-11-26T10:55:46.494Z,16.42
2022-11-26T11:04:10.274Z,18.00
2022-11-26T11:20:34.047Z,15.60
2022-11-26T11:28:43.465Z,15.32
2022-11-26T11:37:02.432Z,14.25
2022-11-26T11:45:25.589Z,12.23
2022-11-26T11:53:42.056Z,12.33
2022-11-26T12:02:03.371Z,13.10
2022-11-26T12:10:15.267Z,13.60
2022-11-26T12:18:34.205Z,13.88
2022-11-26T12:26:45.296Z,12.30
2022-11-26T12:34:56.282Z,14.18
2022-11-26T12:43:06.780Z,16.77
2022-11-26T12:51:32.381Z,14.98
2022-11-26T12:59:45.057Z,18.17
2022-11-26T13:08:14.089Z,17.95
2022-11-26T13:16:34.987Z,17.73
2022-11-26T13:25:07.006Z,18.73
2022-11-26T13:33:55.813Z,18.58
2022-11-26T13:42:32.952Z,18.65
2022-11-26T13:50:45.506Z,17.50
2022-11-26T13:58:57.896Z,17.50
2022-11-26T14:07:24.084Z,17.73
2022-11-26T14:15:59.033Z,17.23
2022-11-26T14:24:06.956Z,16.35
2022-11-26T14:32:17.838Z,19.92
2022-11-26T14:40:26.277Z,15.90
2022-11-26T14:48:37.044Z,17.23
2022-11-26T14:56:46.364Z,16.52
2022-11-26T15:05:04.061Z,16.65
2022-11-26T15:13:15.288Z,17.10
2022-11-26T15:21:27.095Z,16.50
2022-11-26T15:29:35.578Z,17.60
2022-11-26T15:37:48.274Z,16.60
2022-11-26T15:45:56.305Z,22.08
2022-11-26T15:54:06.922Z,25.02
2022-11-26T16:02:21.351Z,21.83
2022-11-26T16:10:35.651Z,21.42
2022-11-26T16:18:45.363Z,19.88
2022-11-26T16:27:01.367Z,23.05
2022-11-26T16:35:29.856Z,22.55
2022-11-26T16:43:35.202Z,23.15
2022-11-26T16:51:40.540Z,23.92
2022-11-26T16:59:52.655Z,26.17
2022-11-26T17:08:01.298Z,26.83
2022-11-26T17:16:16.418Z,23.92
2022-11-26T17:24:24.676Z,23.23
2022-11-26T17:32:36.359Z,23.23
2022-11-26T17:40:41.665Z,22.85
2022-11-26T17:48:49.996Z,23.25
2022-11-26T17:56:56.336Z,22.95
2022-11-26T18:05:05.173Z,26.35
2022-11-26T18:13:10.720Z,22.77
2022-11-26T18:21:18.796Z,22.58
2022-11-26T18:29:24.332Z,24.10
2022-11-26T18:37:32.840Z,25.10
2022-11-26T18:45:38.626Z,26.38
2022-11-26T18:53:47.748Z,25.00
2022-11-26T19:01:53.127Z,25.83
2022-11-26T19:10:01.060Z,27.30
2022-11-26T19:18:06.516Z,28.42
2022-11-26T19:26:14.868Z,28.05
2022-11-26T19:34:20.208Z,31.80
2022-11-26T19:42:30.111Z,34.42
2022-11-26T19:50:35.485Z,36.35
2022-11-26T19:58:43.722Z,38.67
2022-11-26T20:06:49.077Z,30.13
2022-11-26T20:14:57.199Z,28.08
2022-11-26T20:23:02.573Z,32.33
2022-11-26T20:31:11.211Z,25.98
2022-11-26T20:39:18.574Z,25.65
2022-11-26T20:47:28.067Z,26.92
2022-11-26T20:55:33.497Z,21.23
2022-11-26T21:03:41.421Z,21.38
2022-11-26T21:11:46.745Z,20.02
2022-11-26T21:19:55.080Z,22.27
2022-11-26T21:28:00.546Z,24.38
2022-11-26T21:36:15.375Z,25.92
2022-11-26T21:44:20.931Z,26.60
2022-11-26T21:52:28.938Z,24.73
2022-11-26T22:00:34.367Z,30.98
2022-11-26T22:08:44.035Z,26.83
2022-11-26T22:16:51.011Z,24.08
2022-11-26T22:24:58.985Z,28.77
2022-11-26T22:33:07.586Z,36.25
2022-11-26T22:41:16.930Z,36.92
2022-11-26T22:49:24.479Z,34.58
2022-11-26T22:57:32.445Z,31.63
2022-11-26T23:05:41.565Z,31.30
2022-11-26T23:13:51.577Z,29.63
2022-11-26T23:22:00.087Z,30.70
2022-11-26T23:30:13.593Z,28.58
2022-11-26T23:38:25.712Z,29.85
2022-11-26T23:46:35.850Z,26.80
2022-11-26T23:54:45.060Z,28.50
